createdAt,value
2019-05-20T00:00:43.115Z,67.02
2019-05-20T00:03:45.119Z,66.37
2019-05-20T00:06:47.068Z,65.74
2019-05-20T00:09:49.014Z,65.27
2019-05-20T00:12:50.925Z,64.88
2019-05-20T00:15:52.941Z,64.57
2019-05-20T00:18:54.823Z,64.32
2019-05-20T00:21:56.741Z,64.38
2019-05-20T00:24:58.854Z,64.32
2019-05-20T00:28:00.820Z,64.36
2019-05-20T00:31:02.771Z,64.20
2019-05-20T00:34:04.738Z,64.07
2019-05-20T00:37:06.713Z,64.19
2019-05-20T00:40:10.139Z,64.58
2019-05-20T00:43:12.072Z,64.63
2019-05-20T00:46:14.005Z,64.36
2019-05-20T00:49:16.030Z,64.26
2019-05-20T00:52:17.934Z,64.10
2019-05-20T00:55:23.261Z,64.06
2019-05-20T00:58:25.354Z,64.46
2019-05-20T01:01:27.343Z,65.87
2019-05-20T01:04:29.262Z,65.68
2019-05-20T01:07:31.228Z,65.57
2019-05-20T01:10:33.156Z,65.50
2019-05-20T01:13:35.163Z,65.61
2019-05-20T01:16:37.083Z,65.80
2019-05-20T01:19:39.001Z,65.77
2019-05-20T01:22:40.905Z,65.81
2019-05-20T01:25:42.945Z,65.90
2019-05-20T01:28:44.887Z,65.78
2019-05-20T01:31:46.778Z,65.53
2019-05-20T01:34:49.155Z,65.23
2019-05-20T01:37:51.116Z,65.37
2019-05-20T01:40:53.073Z,65.52
2019-05-20T01:43:55.069Z,66.33
2019-05-20T01:46:56.985Z,66.83
2019-05-20T01:49:58.917Z,67.05
2019-05-20T01:53:00.872Z,66.97
2019-05-20T01:56:03.232Z,67.03
2019-05-20T01:59:05.764Z,66.86
2019-05-20T02:02:07.735Z,66.91
2019-05-20T02:05:09.943Z,67.14
2019-05-20T02:08:11.858Z,67.30
2019-05-20T02:11:13.779Z,67.43
2019-05-20T02:14:17.536Z,67.53
2019-05-20T02:17:19.538Z,67.54
2019-05-20T02:20:21.523Z,67.57
2019-05-20T02:23:23.741Z,67.41
2019-05-20T02:26:25.828Z,67.10
2019-05-20T02:29:27.914Z,67.10
2019-05-20T02:32:31.154Z,66.97
2019-05-20T02:35:33.083Z,66.92
2019-05-20T02:38:34.954Z,67.07
2019-05-20T02:41:36.852Z,67.20
2019-05-20T02:44:38.875Z,66.88
2019-05-20T02:47:40.822Z,66.71
2019-05-20T02:50:42.836Z,66.67
2019-05-20T02:53:44.698Z,66.72
2019-05-20T02:56:46.659Z,66.90
2019-05-20T02:59:48.629Z,67.15
2019-05-20T03:02:50.630Z,67.50
2019-05-20T03:05:52.592Z,67.70
2019-05-20T03:08:54.510Z,67.93
2019-05-20T03:11:56.387Z,68.28
2019-05-20T03:14:58.342Z,68.58
2019-05-20T03:18:00.221Z,68.65
2019-05-20T03:21:02.231Z,68.51
2019-05-20T03:24:04.155Z,68.15
2019-05-20T03:27:06.220Z,67.66
2019-05-20T03:30:09.322Z,67.11
2019-05-20T03:33:11.313Z,66.64
2019-05-20T03:36:13.261Z,66.42
2019-05-20T03:39:15.228Z,65.98
2019-05-20T03:42:17.152Z,65.04
2019-05-20T03:45:19.191Z,64.24
2019-05-20T03:48:21.109Z,63.04
2019-05-20T03:51:23.116Z,61.54
2019-05-20T03:54:25.041Z,60.28
2019-05-20T03:57:28.119Z,59.68
2019-05-20T04:00:45.218Z,59.34
2019-05-20T04:03:48.306Z,57.77
2019-05-20T04:06:50.427Z,57.04
2019-05-20T04:09:52.346Z,56.92
2019-05-20T04:12:54.392Z,57.12
2019-05-20T04:15:56.352Z,57.40
2019-05-20T04:18:58.389Z,57.58
2019-05-20T04:22:00.486Z,57.75
2019-05-20T04:25:04.515Z,57.86
2019-05-20T04:28:06.687Z,57.53
2019-05-20T04:31:08.664Z,56.76
2019-05-20T04:34:10.612Z,56.13
2019-05-20T04:37:12.615Z,56.02
2019-05-20T04:40:14.711Z,56.23
2019-05-20T04:43:16.721Z,56.23
2019-05-20T04:46:18.758Z,56.28
2019-05-20T04:49:20.701Z,56.29
2019-05-20T04:52:22.830Z,56.41
2019-05-20T04:55:24.868Z,56.77
2019-05-20T04:58:26.914Z,57.00
2019-05-20T05:01:29.445Z,57.09
2019-05-20T05:04:31.442Z,57.33
2019-05-20T05:07:33.342Z,57.61
2019-05-20T05:10:35.315Z,57.76
2019-05-20T05:13:37.269Z,57.75
2019-05-20T05:16:39.279Z,57.46
2019-05-20T05:19:41.341Z,57.30
2019-05-20T05:22:43.364Z,57.18
2019-05-20T05:25:45.264Z,56.96
2019-05-20T05:28:47.478Z,56.66
2019-05-20T05:31:49.390Z,56.53
2019-05-20T05:34:51.392Z,56.08
2019-05-20T05:37:54.434Z,55.86
2019-05-20T05:40:56.526Z,55.82
2019-05-20T05:43:58.541Z,55.94
2019-05-20T05:47:00.623Z,56.62
2019-05-20T05:50:06.999Z,57.14
2019-05-20T05:53:08.969Z,57.36
2019-05-20T05:56:10.970Z,57.65
2019-05-20T05:59:12.934Z,57.84
2019-05-20T06:02:15.003Z,58.54
2019-05-20T06:05:16.902Z,58.88
2019-05-20T06:08:19.074Z,59.00
2019-05-20T06:11:21.186Z,58.55
2019-05-20T06:14:23.190Z,57.97
2019-05-20T06:17:25.189Z,57.57
2019-05-20T06:20:27.162Z,57.34
2019-05-20T06:23:29.134Z,57.09
2019-05-20T06:26:31.063Z,57.12
2019-05-20T06:29:33.269Z,57.00
2019-05-20T06:32:35.238Z,57.36
2019-05-20T06:35:37.347Z,57.45
2019-05-20T06:38:41.344Z,57.67
2019-05-20T06:41:43.370Z,57.87
2019-05-20T06:44:52.869Z,57.91
2019-05-20T06:47:49.308Z,58.28
2019-05-20T06:50:51.259Z,58.32
2019-05-20T06:53:53.229Z,58.08
2019-05-20T06:56:55.292Z,58.01
2019-05-20T06:59:57.377Z,57.94
2019-05-20T07:03:00.312Z,57.91
2019-05-20T07:06:02.270Z,58.00
2019-05-20T07:09:05.510Z,57.95
2019-05-20T07:12:07.439Z,58.01
2019-05-20T07:15:09.500Z,57.87
2019-05-20T07:18:11.726Z,57.77
2019-05-20T07:21:13.800Z,57.49
2019-05-20T07:24:15.739Z,57.53
2019-05-20T07:27:18.086Z,57.30
2019-05-20T07:30:20.299Z,57.04
2019-05-20T07:33:22.231Z,56.75
2019-05-20T07:36:24.186Z,56.45
2019-05-20T07:39:26.153Z,56.27
2019-05-20T07:42:28.152Z,55.98
2019-05-20T07:45:32.567Z,56.39
2019-05-20T07:48:34.720Z,56.24
2019-05-20T07:51:37.800Z,55.85
2019-05-20T07:54:40.358Z,55.47
2019-05-20T07:57:44.025Z,55.20
2019-05-20T08:00:45.961Z,55.38
2019-05-20T08:03:47.963Z,55.76
2019-05-20T08:06:49.940Z,55.83
2019-05-20T08:09:51.826Z,56.06
2019-05-20T08:12:53.792Z,56.06
2019-05-20T08:15:55.746Z,55.92
2019-05-20T08:18:57.728Z,55.60
2019-05-20T08:21:59.766Z,55.18
2019-05-20T08:25:03.433Z,55.03
2019-05-20T08:28:05.388Z,55.04
2019-05-20T08:31:07.342Z,54.90
2019-05-20T08:34:09.384Z,54.39
2019-05-20T08:37:12.398Z,54.39
2019-05-20T08:40:14.539Z,53.72
2019-05-20T08:43:16.542Z,53.29
2019-05-20T08:46:18.625Z,53.21
2019-05-20T08:49:20.617Z,53.69
2019-05-20T08:52:22.628Z,53.72
2019-05-20T08:55:24.574Z,53.54
2019-05-20T08:58:26.550Z,53.97
2019-05-20T09:01:28.474Z,53.97
2019-05-20T09:04:30.403Z,55.00
2019-05-20T09:07:32.392Z,55.17
2019-05-20T09:10:34.449Z,54.93
2019-05-20T09:13:36.471Z,55.37
2019-05-20T09:19:40.256Z,55.46
2019-05-20T09:22:42.250Z,55.47
2019-05-20T09:25:44.239Z,55.29
2019-05-20T09:28:46.299Z,55.55
2019-05-20T09:31:48.522Z,55.61
2019-05-20T09:34:50.543Z,55.74
2019-05-20T09:37:52.653Z,55.23
2019-05-20T09:40:54.629Z,54.34
2019-05-20T09:43:56.620Z,54.07
2019-05-20T09:46:58.559Z,53.43
2019-05-20T09:50:00.519Z,52.23
2019-05-20T09:53:06.496Z,51.31
2019-05-20T09:56:06.423Z,51.11
2019-05-20T09:59:08.400Z,51.13
2019-05-20T10:02:10.348Z,50.76
2019-05-20T10:05:12.260Z,52.08
2019-05-20T10:08:14.232Z,53.25
2019-05-20T10:11:16.302Z,54.20
2019-05-20T10:14:18.268Z,55.32
2019-05-20T10:17:20.330Z,55.70
2019-05-20T10:20:22.372Z,55.68
2019-05-20T10:23:24.330Z,55.36
2019-05-20T10:26:26.314Z,54.74
2019-05-20T10:29:28.393Z,54.37
2019-05-20T10:32:30.339Z,55.12
2019-05-20T10:35:32.314Z,54.68
2019-05-20T10:38:34.295Z,53.98
2019-05-20T10:41:36.262Z,54.51
2019-05-20T10:44:41.723Z,54.50
2019-05-20T10:47:42.155Z,54.57
2019-05-20T10:50:44.237Z,53.02
2019-05-20T10:53:46.261Z,52.41
2019-05-20T10:56:48.392Z,51.92
2019-05-20T10:59:50.360Z,51.55
2019-05-20T11:02:53.312Z,51.59
2019-05-20T11:05:55.276Z,51.04
2019-05-20T11:09:11.710Z,50.52
2019-05-20T11:12:01.070Z,50.21
2019-05-20T11:15:06.077Z,49.95
2019-05-20T11:18:08.076Z,47.83
2019-05-20T11:21:10.036Z,47.27
2019-05-20T11:24:12.015Z,46.19
2019-05-20T11:27:13.948Z,45.10
2019-05-20T11:30:16.001Z,45.10
2019-05-20T11:33:17.913Z,45.05
2019-05-20T11:36:21.016Z,45.75
2019-05-20T11:39:33.468Z,46.10
2019-05-20T11:42:26.871Z,45.62
2019-05-20T11:45:28.858Z,45.02
2019-05-20T11:48:30.811Z,44.35
2019-05-20T11:51:32.763Z,43.96
2019-05-20T11:54:34.778Z,42.81
2019-05-20T11:57:36.713Z,43.06
2019-05-20T12:00:38.782Z,42.75
2019-05-20T12:03:40.726Z,42.57
2019-05-20T12:06:42.756Z,42.02
2019-05-20T12:09:49.516Z,41.92
2019-05-20T12:12:48.542Z,42.33
2019-05-20T12:15:50.586Z,43.42
2019-05-20T12:18:52.598Z,43.92
2019-05-20T12:21:54.569Z,44.56
2019-05-20T12:24:56.602Z,44.79
2019-05-20T12:27:58.505Z,44.99
2019-05-20T12:31:00.438Z,44.90
2019-05-20T12:34:02.575Z,44.12
2019-05-20T12:37:04.470Z,44.81
2019-05-20T12:40:08.097Z,45.40
2019-05-20T12:43:10.648Z,44.15
2019-05-20T12:46:12.713Z,43.56
2019-05-20T12:49:14.920Z,44.55
2019-05-20T12:52:16.936Z,44.59
2019-05-20T12:55:18.988Z,42.18
2019-05-20T12:58:21.029Z,41.52
2019-05-20T13:01:22.949Z,39.95
2019-05-20T13:04:25.005Z,39.08
2019-05-20T13:07:27.022Z,38.51
2019-05-20T13:10:32.048Z,38.73
2019-05-20T13:13:34.725Z,38.89
2019-05-20T13:16:36.673Z,39.38
2019-05-20T13:19:38.642Z,39.56
2019-05-20T13:22:40.634Z,39.99
2019-05-20T13:25:42.596Z,40.96
2019-05-20T13:28:44.622Z,40.93
2019-05-20T13:31:46.505Z,39.84
2019-05-20T13:34:48.559Z,39.81
2019-05-20T13:37:50.548Z,40.17
2019-05-20T13:40:52.477Z,39.13
2019-05-20T13:43:54.686Z,39.46
2019-05-20T13:46:56.636Z,38.56
2019-05-20T13:49:59.971Z,38.82
2019-05-20T13:53:02.120Z,38.32
2019-05-20T13:56:04.165Z,38.82
2019-05-20T13:59:06.267Z,38.14
2019-05-20T14:02:08.314Z,37.66
2019-05-20T14:05:10.471Z,37.05
2019-05-20T14:08:12.643Z,37.74
2019-05-20T14:11:14.637Z,37.83
2019-05-20T14:14:16.601Z,37.68
2019-05-20T14:17:18.637Z,37.11
2019-05-20T14:20:20.637Z,36.27
2019-05-20T14:23:22.595Z,36.44
2019-05-20T14:26:24.601Z,36.32
2019-05-20T14:29:26.910Z,36.16
2019-05-20T14:32:28.926Z,35.99
2019-05-20T14:35:31.024Z,37.64
2019-05-20T14:38:33.035Z,40.70
2019-05-20T14:41:34.962Z,39.80
2019-05-20T14:44:37.278Z,42.46
2019-05-20T14:47:39.235Z,42.15
2019-05-20T14:50:42.332Z,40.95
2019-05-20T14:53:44.316Z,40.33
2019-05-20T14:56:47.957Z,41.95
2019-05-20T14:59:50.035Z,42.71
2019-05-20T15:02:52.114Z,43.28
2019-05-20T15:05:54.191Z,42.11
2019-05-20T15:08:56.302Z,43.16
2019-05-20T15:11:58.317Z,42.56
2019-05-20T15:15:00.357Z,42.37
2019-05-20T15:18:02.299Z,42.84
2019-05-20T15:21:05.303Z,41.86
2019-05-20T15:24:08.544Z,42.76
2019-05-20T15:27:10.643Z,42.23
2019-05-20T15:30:12.841Z,41.55
2019-05-20T15:33:14.837Z,42.85
2019-05-20T15:36:16.944Z,43.35
2019-05-20T15:39:18.896Z,44.60
2019-05-20T15:42:20.854Z,43.91
2019-05-20T15:45:22.898Z,44.37
2019-05-20T15:48:24.958Z,45.61
2019-05-20T15:51:27.021Z,45.90
2019-05-20T15:54:29.137Z,43.64
2019-05-20T15:57:31.104Z,43.99
2019-05-20T16:00:34.293Z,44.17
2019-05-20T16:03:39.706Z,45.86
2019-05-20T16:06:41.702Z,45.34
2019-05-20T16:09:44.147Z,44.95
2019-05-20T16:12:46.046Z,45.24
2019-05-20T16:15:48.101Z,44.49
2019-05-20T16:18:51.581Z,44.38
2019-05-20T16:21:54.821Z,44.08
2019-05-20T16:24:56.742Z,44.90
2019-05-20T16:27:58.696Z,45.60
2019-05-20T16:31:00.656Z,44.72
2019-05-20T16:34:02.684Z,44.28
2019-05-20T16:37:04.752Z,43.19
2019-05-20T16:40:07.923Z,43.37
2019-05-20T16:43:10.026Z,43.09
2019-05-20T16:46:12.173Z,42.99
2019-05-20T16:49:14.205Z,42.51
2019-05-20T16:52:17.598Z,42.97
2019-05-20T16:55:19.552Z,43.02
2019-05-20T16:58:21.692Z,43.93
2019-05-20T17:01:23.771Z,44.62
2019-05-20T17:04:26.104Z,44.82
2019-05-20T17:07:28.486Z,44.64
2019-05-20T17:10:30.659Z,44.54
2019-05-20T17:13:33.513Z,45.40
2019-05-20T17:16:35.494Z,46.85
2019-05-20T17:19:37.413Z,46.85
2019-05-20T17:22:41.262Z,47.21
2019-05-20T17:25:43.293Z,47.79
2019-05-20T17:28:45.432Z,49.17
2019-05-20T17:31:49.268Z,49.54
2019-05-20T17:34:51.625Z,49.54
2019-05-20T17:37:55.516Z,50.11
2019-05-20T17:40:57.573Z,50.22
2019-05-20T17:43:59.514Z,49.90
2019-05-20T17:47:01.501Z,50.54
2019-05-20T17:50:05.821Z,50.69
2019-05-20T17:53:07.911Z,50.87
2019-05-20T17:56:13.090Z,51.11
2019-05-20T17:59:15.439Z,51.04
2019-05-20T18:02:17.449Z,51.16
2019-05-20T18:05:19.520Z,51.12
2019-05-20T18:08:26.033Z,51.88
2019-05-20T18:11:28.162Z,52.71
2019-05-20T18:14:30.654Z,53.01
2019-05-20T18:17:33.778Z,52.98
2019-05-20T18:20:35.708Z,52.54
2019-05-20T18:23:38.009Z,52.06
2019-05-20T18:26:39.972Z,52.07
2019-05-20T18:29:41.956Z,52.72
2019-05-20T18:32:44.369Z,53.48
2019-05-20T18:35:46.518Z,54.07
2019-05-20T18:38:49.664Z,54.39
2019-05-20T18:41:53.979Z,54.79
2019-05-20T18:44:57.106Z,54.90
2019-05-20T18:47:59.195Z,55.22
2019-05-20T18:51:01.464Z,55.70
2019-05-20T18:54:03.834Z,55.67
2019-05-20T18:57:07.613Z,55.38
2019-05-20T19:00:10.873Z,55.70
2019-05-20T19:03:13.901Z,55.44
2019-05-20T19:06:17.701Z,55.29
2019-05-20T19:09:19.745Z,55.18
2019-05-20T19:12:21.834Z,55.09
2019-05-20T19:15:23.854Z,55.65
2019-05-20T19:18:29.751Z,56.45
2019-05-20T19:21:31.766Z,57.07
2019-05-20T19:24:36.404Z,57.88
2019-05-20T19:27:38.474Z,58.45
2019-05-20T19:30:40.402Z,58.86
2019-05-20T19:33:42.427Z,59.28
2019-05-20T19:36:45.532Z,59.61
2019-05-20T19:39:49.465Z,59.82
2019-05-20T19:42:52.224Z,59.76
2019-05-20T19:45:55.229Z,59.61
2019-05-20T19:48:57.271Z,59.79
2019-05-20T19:51:59.300Z,60.08
2019-05-20T19:55:01.448Z,60.06
2019-05-20T19:58:06.441Z,60.21
2019-05-20T20:01:08.416Z,60.42
2019-05-20T20:04:10.406Z,60.05
2019-05-20T20:07:12.978Z,59.56
2019-05-20T20:10:16.680Z,59.42
2019-05-20T20:13:21.280Z,59.24
2019-05-20T20:16:24.476Z,58.66
2019-05-20T20:19:31.241Z,58.35
2019-05-20T20:22:33.239Z,58.24
2019-05-20T20:25:36.607Z,58.15
2019-05-20T20:28:40.036Z,58.36
2019-05-20T20:31:43.399Z,58.68
2019-05-20T20:34:47.013Z,58.75
2019-05-20T20:37:48.996Z,58.74
2019-05-20T20:40:52.731Z,58.80
2019-05-20T20:43:54.778Z,58.86
2019-05-20T20:46:56.826Z,58.59
2019-05-20T20:49:58.883Z,58.32
2019-05-20T20:53:00.794Z,58.11
2019-05-20T20:56:04.602Z,57.90
2019-05-20T20:59:06.648Z,57.76
2019-05-20T21:02:08.684Z,57.82
2019-05-20T21:05:11.564Z,58.14
2019-05-20T21:08:13.599Z,59.04
2019-05-20T21:11:16.186Z,59.59
2019-05-20T21:14:18.132Z,60.10
2019-05-20T21:17:20.084Z,60.32
2019-05-20T21:20:22.093Z,59.91
2019-05-20T21:23:25.687Z,60.47
2019-05-20T21:26:27.762Z,60.82
2019-05-20T21:29:32.428Z,61.14
2019-05-20T21:32:33.583Z,61.49
2019-05-20T21:35:35.550Z,61.65
2019-05-20T21:38:37.510Z,61.21
2019-05-20T21:41:39.592Z,61.00
2019-05-20T21:44:41.499Z,60.72
2019-05-20T21:47:44.785Z,60.71
2019-05-20T21:50:47.142Z,60.66
2019-05-20T21:53:49.176Z,60.33
2019-05-20T21:56:51.049Z,60.11
2019-05-20T21:59:54.038Z,59.99
2019-05-20T22:02:57.176Z,60.18
2019-05-20T22:05:59.220Z,60.39
2019-05-20T22:09:04.607Z,60.49
2019-05-20T22:12:06.624Z,60.64
2019-05-20T22:15:08.628Z,60.65
2019-05-20T22:18:10.661Z,60.50
2019-05-20T22:21:14.402Z,60.15
2019-05-20T22:24:16.427Z,59.97
2019-05-20T22:27:18.383Z,59.94
2019-05-20T22:30:20.425Z,59.78
2019-05-20T22:33:22.378Z,59.71
2019-05-20T22:36:24.386Z,59.98
2019-05-20T22:39:26.268Z,60.16
2019-05-20T22:42:28.319Z,60.74
2019-05-20T22:45:31.956Z,61.36
2019-05-20T22:48:33.905Z,62.03
2019-05-20T22:51:35.884Z,61.58
2019-05-20T22:54:37.889Z,62.66
2019-05-20T22:57:39.778Z,63.24
2019-05-20T23:00:41.782Z,64.11
2019-05-20T23:03:55.662Z,64.31
2019-05-20T23:06:47.674Z,64.49
2019-05-20T23:09:49.667Z,64.66
2019-05-20T23:12:51.616Z,64.86
2019-05-20T23:15:55.689Z,65.31
2019-05-20T23:18:57.386Z,65.66
2019-05-20T23:21:59.340Z,65.59
2019-05-20T23:25:01.278Z,65.84
2019-05-20T23:28:04.388Z,66.31
2019-05-20T23:31:06.339Z,66.77
2019-05-20T23:34:12.879Z,66.97
2019-05-20T23:37:12.117Z,67.02
2019-05-20T23:40:13.985Z,67.01
2019-05-20T23:43:16.123Z,66.95
2019-05-20T23:46:18.388Z,66.90
2019-05-20T23:49:20.394Z,66.87
2019-05-20T23:52:22.301Z,66.89
2019-05-20T23:55:24.854Z,66.77
2019-05-20T23:58:26.810Z,66.57
